TimeCDT,TemperatureF,Dew PointF,Humidity,Sea Level PressureIn,VisibilityMPH,Wind Direction,Wind SpeedMPH,Gust SpeedMPH,PrecipitationIn,Events,Conditions,WindDirDegrees,DateUTC
12:15 AM,61.0,52.3,73,30.19,10.0,East,8.1,-,N/A,,Clear,90,2013-08-24 05:15:00
12:35 AM,58.3,52.9,82,30.20,10.0,ESE,5.8,-,N/A,,Clear,120,2013-08-24 05:35:00
12:55 AM,56.8,53.1,87,30.20,10.0,East,6.9,-,N/A,,Clear,90,2013-08-24 05:55:00
1:15 AM,56.5,53.6,90,30.20,10.0,East,5.8,-,N/A,,Clear,90,2013-08-24 06:15:00
1:35 AM,58.1,54.9,89,30.20,10.0,East,5.8,-,N/A,,Clear,90,2013-08-24 06:35:00
1:55 AM,59.0,55.6,88,30.20,10.0,East,4.6,-,N/A,,Clear,80,2013-08-24 06:55:00
2:15 AM,59.5,56.3,89,30.20,10.0,East,4.6,-,N/A,,Clear,80,2013-08-24 07:15:00
2:35 AM,58.5,55.6,90,30.20,10.0,East,3.5,-,N/A,,Clear,80,2013-08-24 07:35:00
2:55 AM,58.3,55.6,91,30.21,10.0,Calm,Calm,-,N/A,,Clear,0,2013-08-24 07:55:00
3:15 AM,57.6,55.4,92,30.21,10.0,Calm,Calm,-,N/A,,Clear,0,2013-08-24 08:15:00
3:35 AM,56.3,54.5,94,30.21,10.0,Calm,Calm,-,N/A,,Clear,0,2013-08-24 08:35:00
3:55 AM,56.7,55.2,95,30.22,10.0,Calm,Calm,-,N/A,,Clear,0,2013-08-24 08:55:00
4:15 AM,56.8,55.4,95,30.21,10.0,Calm,Calm,-,N/A,,Clear,0,2013-08-24 09:15:00
4:35 AM,57.2,55.4,94,30.22,10.0,Calm,Calm,-,N/A,,Clear,0,2013-08-24 09:35:00
4:55 AM,56.5,54.9,94,30.22,7.0,Calm,Calm,-,N/A,,Clear,0,2013-08-24 09:55:00
5:15 AM,57.4,55.8,94,30.23,10.0,Calm,Calm,-,N/A,,Clear,0,2013-08-24 10:15:00
5:35 AM,57.2,55.4,94,30.23,10.0,Calm,Calm,-,N/A,,Clear,0,2013-08-24 10:35:00
5:55 AM,57.2,55.2,93,30.24,10.0,Calm,Calm,-,N/A,,Clear,0,2013-08-24 10:55:00
6:15 AM,56.3,54.5,94,30.24,10.0,Calm,Calm,-,N/A,,Clear,0,2013-08-24 11:15:00
6:35 AM,57.0,55.6,95,30.24,10.0,Calm,Calm,-,N/A,,Clear,0,2013-08-24 11:35:00
6:55 AM,57.6,55.9,94,30.25,10.0,Calm,Calm,-,N/A,,Clear,0,2013-08-24 11:55:00
7:15 AM,60.1,57.6,91,30.26,10.0,Calm,Calm,-,N/A,,Clear,0,2013-08-24 12:15:00
7:35 AM,61.3,58.1,89,30.26,10.0,Calm,Calm,-,N/A,,Clear,0,2013-08-24 12:35:00
7:55 AM,62.8,59.0,87,30.26,10.0,ESE,5.8,-,N/A,,Clear,120,2013-08-24 12:55:00
8:15 AM,64.8,59.9,84,30.26,10.0,ESE,4.6,-,N/A,,Clear,120,2013-08-24 13:15:00
8:35 AM,67.3,60.6,79,30.26,10.0,SE,4.6,-,N/A,,Clear,140,2013-08-24 13:35:00
8:55 AM,69.8,60.3,72,30.26,10.0,South,3.5,-,N/A,,Clear,170,2013-08-24 13:55:00
9:15 AM,70.9,60.1,69,30.26,10.0,SSE,5.8,-,N/A,,Clear,160,2013-08-24 14:15:00
9:35 AM,72.5,60.8,67,30.26,10.0,South,9.2,-,N/A,,Clear,170,2013-08-24 14:35:00
9:55 AM,73.6,61.7,66,30.26,10.0,South,6.9,-,N/A,,Clear,170,2013-08-24 14:55:00
10:15 AM,74.8,62.1,64,30.27,10.0,South,5.8,-,N/A,,Clear,170,2013-08-24 15:15:00
10:35 AM,75.9,62.8,64,30.26,10.0,South,6.9,-,N/A,,Clear,180,2013-08-24 15:35:00
10:55 AM,77.0,63.7,63,30.26,10.0,South,6.9,-,N/A,,Clear,180,2013-08-24 15:55:00
11:15 AM,77.7,63.7,62,30.26,10.0,South,8.1,-,N/A,,Clear,170,2013-08-24 16:15:00
11:35 AM,78.8,64.9,62,30.26,10.0,South,6.9,-,N/A,,Clear,180,2013-08-24 16:35:00
11:55 AM,78.8,63.9,60,30.26,10.0,South,8.1,-,N/A,,Clear,180,2013-08-24 16:55:00
12:15 PM,79.2,63.9,59,30.25,10.0,SSE,6.9,-,N/A,,Clear,160,2013-08-24 17:15:00
12:35 PM,79.7,64.2,59,30.25,10.0,South,9.2,-,N/A,,Clear,190,2013-08-24 17:35:00
12:55 PM,80.1,65.7,61,30.25,10.0,South,4.6,-,N/A,,Scattered Clouds,190,2013-08-24 17:55:00
1:15 PM,80.6,65.3,59,30.24,10.0,SSW,8.1,-,N/A,,Scattered Clouds,200,2013-08-24 18:15:00
1:35 PM,81.0,65.8,60,30.24,10.0,South,4.6,-,N/A,,Scattered Clouds,180,2013-08-24 18:35:00
1:55 PM,81.0,64.2,57,30.24,10.0,South,8.1,-,N/A,,Scattered Clouds,190,2013-08-24 18:55:00
2:15 PM,81.1,65.1,58,30.24,10.0,South,6.9,-,N/A,,Scattered Clouds,180,2013-08-24 19:15:00
2:35 PM,81.7,66.0,59,30.23,10.0,South,9.2,-,N/A,,Scattered Clouds,180,2013-08-24 19:35:00
2:55 PM,81.5,66.2,60,30.23,10.0,SSE,6.9,-,N/A,,Scattered Clouds,150,2013-08-24 19:55:00
3:15 PM,81.3,65.3,58,30.22,10.0,SSE,3.5,-,N/A,,Scattered Clouds,160,2013-08-24 20:15:00
3:35 PM,81.1,65.7,59,30.22,10.0,SSE,5.8,-,N/A,,Scattered Clouds,160,2013-08-24 20:35:00
3:55 PM,81.3,65.5,58,30.21,10.0,South,8.1,-,N/A,,Clear,170,2013-08-24 20:55:00
4:15 PM,81.5,65.3,58,30.21,10.0,SSE,9.2,-,N/A,,Clear,160,2013-08-24 21:15:00
4:35 PM,81.1,65.7,59,30.20,10.0,SSE,9.2,-,N/A,,Clear,160,2013-08-24 21:35:00
4:55 PM,81.5,65.1,57,30.20,10.0,SSE,8.1,-,N/A,,Clear,160,2013-08-24 21:55:00
5:15 PM,81.1,65.7,59,30.20,10.0,South,4.6,-,N/A,,Clear,170,2013-08-24 22:15:00
5:35 PM,80.8,65.7,60,30.20,10.0,SSE,8.1,-,N/A,,Clear,160,2013-08-24 22:35:00
5:55 PM,80.2,65.7,61,30.19,10.0,SSE,8.1,-,N/A,,Clear,160,2013-08-24 22:55:00
6:15 PM,79.7,66.2,63,30.20,10.0,South,5.8,-,N/A,,Clear,170,2013-08-24 23:15:00
6:35 PM,78.8,67.1,67,30.19,10.0,SSE,5.8,-,N/A,,Clear,160,2013-08-24 23:35:00
6:55 PM,77.2,68.0,73,30.20,10.0,SSE,4.6,-,N/A,,Clear,150,2013-08-24 23:55:00
7:15 PM,75.2,67.6,77,30.20,10.0,SE,4.6,-,N/A,,Clear,140,2013-08-25 00:15:00
7:35 PM,73.2,67.6,83,30.20,10.0,SE,4.6,-,N/A,,Clear,140,2013-08-25 00:35:00
7:55 PM,71.8,67.5,86,30.20,10.0,SE,4.6,-,N/A,,Clear,130,2013-08-25 00:55:00
8:15 PM,70.5,67.1,89,30.21,10.0,SE,5.8,-,N/A,,Clear,130,2013-08-25 01:15:00
8:35 PM,70.0,66.7,89,30.21,10.0,SE,5.8,-,N/A,,Clear,130,2013-08-25 01:35:00
8:55 PM,69.3,66.4,91,30.21,10.0,SE,4.6,-,N/A,,Clear,140,2013-08-25 01:55:00
9:15 PM,69.1,66.2,91,30.21,10.0,SE,4.6,-,N/A,,Clear,140,2013-08-25 02:15:00
9:35 PM,68.9,65.8,90,30.22,10.0,SSE,4.6,-,N/A,,Clear,150,2013-08-25 02:35:00
9:55 PM,68.9,65.5,89,30.22,10.0,SSE,5.8,-,N/A,,Clear,150,2013-08-25 02:55:00
10:15 PM,69.3,65.3,87,30.22,10.0,SSE,5.8,-,N/A,,Clear,150,2013-08-25 03:15:00
10:35 PM,68.9,64.8,87,30.22,10.0,SSE,5.8,-,N/A,,Clear,150,2013-08-25 03:35:00
10:55 PM,68.5,64.4,87,30.22,10.0,SSE,5.8,-,N/A,,Clear,150,2013-08-25 03:55:00
11:15 PM,68.0,63.0,84,30.22,10.0,SE,6.9,-,N/A,,Clear,140,2013-08-25 04:15:00
11:35 PM,68.2,61.2,78,30.22,10.0,SSE,5.8,-,N/A,,Clear,150,2013-08-25 04:35:00
11:55 PM,67.3,60.8,80,30.21,10.0,SSE,4.6,-,N/A,,Clear,160,2013-08-25 04:55:00